»·PEaware :: SWA219 MMUN-KMDW

SWA219 :: MMUN-KMDW

FLIGHT INFORMATION

Flight Status: Arrived
Operator:
Southwest Airlines
More flights by this operator :: More flights under this callsign
Pilot: Daniel W. (24238)
Aircraft: BOEING 737-700
(B737)
More flights by this aircraft type
Origin: MMUN Cancun Intl
Mexico
Destination: KMDW Chicago-Midway
United States
More flights between these airports :: More routes between these airports
Route: PISAD L333 HRV MCB J35 SQS J35 MEM J35 FAM SPI PHEEB ENDEE5
File this flight plan on PilotEdge
Remarks: PBN / A1D1O1S2T1 NAV / RNVD1E1A1 RNP10 DOF / 201213 REG / N7832A EET / MMID0008 KZHU0029 KZME0135 KZKC0216 KZAU0237 CODE / AA9E4A PER / C
Altitude:
(Current/Filed)
38,000ft
Speed:
(Current/Filed)
449kts
Departed: 13-Dec-20 11:56 AM
Arrived: 13-Dec-20 03:04 PM
Distance/Time
Traveled:
1246nm/3:08
Distance/Time
To Go:
Arrived

Flight Plot

Page will automatically refresh every two minutes.

Flight plan parsing failed; only flown route is shown


Map Options




Map Legend


Flown Route
Filed Route
Departure Airport
Arrival Airport
Navaid (VOR, NDB)
Fix

Horizontal Profiles

Position Reports

Time Latitude Longitude Heading Altitude Ground
Speed
13-Dec-20 11:54 21.045846 -86.890438 215 28ft 13kts
13-Dec-20 11:55 21.043619 -86.888333 124 28ft 63kts
13-Dec-20 11:56 21.022515 -86.854424 121 958ft 171kts
13-Dec-20 11:57 20.994049 -86.805515 122 2968ft 197kts
13-Dec-20 11:58 20.996831 -86.744687 49 4462ft 267kts
13-Dec-20 11:59 21.070658 -86.738785 334 7490ft 293kts
13-Dec-20 12:00 21.128197 -86.801555 297 10841ft 309kts
13-Dec-20 12:01 21.177379 -86.886291 331 12722ft 365kts
13-Dec-20 12:02 21.277435 -86.882210 10 15402ft 379kts
13-Dec-20 12:03 21.385205 -86.889033 355 17852ft 397kts
13-Dec-20 12:04 21.497542 -86.898596 355 20047ft 414kts
13-Dec-20 12:05 21.614428 -86.908518 354 22012ft 429kts
13-Dec-20 12:07 21.735273 -86.918827 354 23737ft 444kts
13-Dec-20 12:08 21.859982 -86.929485 353 25430ft 453kts
13-Dec-20 12:09 21.986939 -86.940306 353 27042ft 461kts
13-Dec-20 12:10 22.115633 -86.951315 352 28499ft 468kts
13-Dec-20 12:11 22.246886 -86.962557 352 29805ft 475kts
13-Dec-20 12:12 22.379849 -86.973958 351 30893ft 484kts
13-Dec-20 12:13 22.513586 -86.985460 351 32350ft 481kts
13-Dec-20 12:14 22.646618 -86.996925 351 33735ft 478kts
13-Dec-20 12:15 22.778937 -87.008336 351 35017ft 475kts
13-Dec-20 12:16 22.910435 -87.019720 350 36104ft 474kts
13-Dec-20 12:17 23.041679 -87.031101 350 37135ft 471kts
13-Dec-20 12:18 23.172313 -87.042448 350 37997ft 470kts
13-Dec-20 12:19 23.303533 -87.053870 350 38041ft 472kts
13-Dec-20 12:20 23.434473 -87.065280 350 38041ft 472kts
13-Dec-20 12:21 23.565243 -87.076685 350 38041ft 472kts
13-Dec-20 12:21 23.674256 -87.086223 350 38041ft 472kts
13-Dec-20 12:23 23.827181 -87.099631 350 38041ft 472kts
13-Dec-20 12:23 23.936349 -87.109225 350 38041ft 472kts
13-Dec-20 12:25 24.089152 -87.122663 349 38039ft 471kts
13-Dec-20 12:26 24.219608 -87.134193 349 38039ft 471kts
13-Dec-20 12:26 24.326242 -87.153715 336 38039ft 461kts
13-Dec-20 12:27 24.447363 -87.198924 334 38039ft 459kts
13-Dec-20 12:28 24.568536 -87.244086 334 38039ft 459kts
13-Dec-20 12:29 24.689663 -87.289049 334 38039ft 459kts
13-Dec-20 12:30 24.810875 -87.334112 334 38038ft 459kts
13-Dec-20 12:31 24.931939 -87.379363 334 38038ft 459kts
13-Dec-20 12:32 25.053153 -87.424762 334 38038ft 459kts
13-Dec-20 12:33 25.173495 -87.470798 333 38037ft 459kts
13-Dec-20 12:34 25.294093 -87.517106 333 38026ft 459kts
13-Dec-20 12:35 25.414901 -87.563485 333 38025ft 459kts
13-Dec-20 12:36 25.535329 -87.609755 333 38025ft 458kts
13-Dec-20 12:37 25.655929 -87.656262 333 38025ft 458kts
13-Dec-20 12:38 25.776276 -87.702784 333 38024ft 458kts
13-Dec-20 12:39 25.896704 -87.749438 333 38022ft 458kts
13-Dec-20 12:40 26.017070 -87.796171 332 38025ft 458kts
13-Dec-20 12:41 26.137615 -87.843076 332 38026ft 458kts
13-Dec-20 12:42 26.258141 -87.890076 332 38042ft 458kts
13-Dec-20 12:43 26.378114 -87.936963 332 38054ft 458kts
13-Dec-20 12:44 26.498470 -87.984105 332 38055ft 457kts
13-Dec-20 12:45 26.618580 -88.031253 332 38055ft 458kts
13-Dec-20 12:46 26.738999 -88.078631 332 38056ft 458kts
13-Dec-20 12:47 26.859243 -88.126047 332 38057ft 457kts
13-Dec-20 12:48 26.978586 -88.173215 331 38056ft 456kts
13-Dec-20 12:49 27.098521 -88.220640 331 38046ft 455kts
13-Dec-20 12:50 27.217942 -88.268126 331 38047ft 455kts
13-Dec-20 12:51 27.337080 -88.315293 331 38037ft 454kts
13-Dec-20 12:52 27.456468 -88.362041 331 38037ft 454kts
13-Dec-20 12:53 27.575963 -88.409028 331 38037ft 454kts
13-Dec-20 12:54 27.695112 -88.455799 331 38037ft 454kts
13-Dec-20 12:55 27.814632 -88.502916 331 38037ft 454kts
13-Dec-20 12:56 27.933724 -88.549964 331 38037ft 454kts
13-Dec-20 12:57 28.052699 -88.597075 330 38039ft 451kts
13-Dec-20 12:58 28.171268 -88.644256 330 38039ft 451kts
13-Dec-20 12:59 28.279847 -88.707747 315 38039ft 430kts
13-Dec-20 13:00 28.376782 -88.786793 314 38039ft 429kts
13-Dec-20 13:01 28.473770 -88.865820 314 38035ft 428kts
13-Dec-20 13:02 28.570919 -88.944630 314 38029ft 428kts
13-Dec-20 13:03 28.667438 -89.023211 314 38026ft 428kts
13-Dec-20 13:04 28.764268 -89.102330 313 38023ft 427kts
13-Dec-20 13:05 28.860950 -89.181534 313 38013ft 427kts
13-Dec-20 13:06 28.957422 -89.260754 313 38013ft 426kts
13-Dec-20 13:07 29.053568 -89.339894 313 38011ft 426kts
13-Dec-20 13:08 29.149754 -89.419255 313 38010ft 425kts
13-Dec-20 13:09 29.245594 -89.498518 313 38010ft 425kts
13-Dec-20 13:10 29.341413 -89.577953 312 38010ft 424kts
13-Dec-20 13:11 29.436537 -89.657002 312 38011ft 423kts
13-Dec-20 13:12 29.532294 -89.736768 312 38001ft 423kts
13-Dec-20 13:13 29.627638 -89.816177 312 37998ft 423kts
13-Dec-20 13:14 29.722494 -89.895640 312 37982ft 422kts
13-Dec-20 13:15 29.817635 -89.975339 314 37977ft 425kts
13-Dec-20 13:16 29.936348 -90.018533 339 37983ft 467kts
13-Dec-20 13:17 30.065309 -90.040371 339 37989ft 467kts
13-Dec-20 13:18 30.193719 -90.062647 339 37987ft 467kts
13-Dec-20 13:19 30.322119 -90.084937 339 37987ft 467kts
13-Dec-20 13:20 30.450717 -90.107401 339 37986ft 467kts
13-Dec-20 13:21 30.579410 -90.129953 339 37986ft 467kts
13-Dec-20 13:22 30.707680 -90.152492 339 37987ft 467kts
13-Dec-20 13:23 30.836033 -90.175106 338 37988ft 466kts
13-Dec-20 13:24 30.964814 -90.197863 338 37985ft 466kts
13-Dec-20 13:25 31.092845 -90.220502 338 37978ft 466kts
13-Dec-20 13:26 31.221050 -90.243319 338 37973ft 464kts
13-Dec-20 13:27 31.350791 -90.258959 347 37974ft 479kts
13-Dec-20 13:28 31.483722 -90.259781 347 37973ft 478kts
13-Dec-20 13:29 31.617033 -90.260956 347 37971ft 477kts
13-Dec-20 13:30 31.749650 -90.262133 347 37970ft 476kts
13-Dec-20 13:31 31.882550 -90.263279 347 37967ft 476kts
13-Dec-20 13:32 32.015127 -90.264443 346 37961ft 476kts
13-Dec-20 13:33 32.147635 -90.265606 346 37958ft 476kts
13-Dec-20 13:34 32.280021 -90.266773 346 37964ft 476kts
13-Dec-20 13:35 32.412860 -90.267949 346 37967ft 476kts
13-Dec-20 13:36 32.545867 -90.269130 347 37954ft 478kts
13-Dec-20 13:37 32.679007 -90.270316 347 37948ft 478kts
13-Dec-20 13:38 32.811621 -90.271502 347 37954ft 478kts
13-Dec-20 13:39 32.945043 -90.272699 347 37964ft 479kts
13-Dec-20 13:40 33.078212 -90.273897 347 37977ft 479kts
13-Dec-20 13:41 33.211638 -90.275100 347 37990ft 479kts
13-Dec-20 13:42 33.345121 -90.276313 347 37999ft 479kts
13-Dec-20 13:43 33.479022 -90.274203 355 38006ft 492kts
13-Dec-20 13:44 33.614850 -90.249233 357 38011ft 495kts
13-Dec-20 13:45 33.751293 -90.223575 357 38014ft 495kts
13-Dec-20 13:46 33.887537 -90.198043 357 38028ft 495kts
13-Dec-20 13:47 34.023407 -90.172498 357 38034ft 495kts
13-Dec-20 13:48 34.159727 -90.146722 357 38037ft 495kts
13-Dec-20 13:49 34.295999 -90.120840 357 38039ft 495kts
13-Dec-20 13:50 34.432208 -90.094914 357 38052ft 496kts
13-Dec-20 13:51 34.568748 -90.068833 357 38063ft 496kts
13-Dec-20 13:52 34.705158 -90.042802 356 38077ft 496kts
13-Dec-20 13:53 34.841563 -90.016674 356 38106ft 497kts
13-Dec-20 13:54 34.978594 -89.990335 355 38133ft 495kts
13-Dec-20 13:55 35.111796 -89.991218 341 38149ft 472kts
13-Dec-20 13:56 35.242693 -90.003917 341 38144ft 473kts
13-Dec-20 13:57 35.374270 -90.016097 341 38139ft 473kts
13-Dec-20 13:59 35.505526 -90.028170 340 38135ft 473kts
13-Dec-20 14:00 35.637429 -90.040449 340 38145ft 478kts
13-Dec-20 14:01 35.771087 -90.052637 340 38164ft 478kts
13-Dec-20 14:02 35.904326 -90.065175 340 38185ft 482kts
13-Dec-20 14:03 36.037071 -90.077552 340 38182ft 479kts
13-Dec-20 14:04 36.170737 -90.090104 340 38176ft 481kts
13-Dec-20 14:05 36.302545 -90.102567 340 38155ft 472kts
13-Dec-20 14:06 36.434091 -90.114986 340 38176ft 473kts
13-Dec-20 14:07 36.565003 -90.127413 340 38204ft 473kts
13-Dec-20 14:08 36.696979 -90.139913 340 38215ft 475kts
13-Dec-20 14:09 36.828960 -90.152485 340 38214ft 476kts
13-Dec-20 14:10 36.961210 -90.165140 340 38214ft 476kts
13-Dec-20 14:11 37.093759 -90.177869 340 38218ft 477kts
13-Dec-20 14:12 37.225972 -90.190612 340 38221ft 477kts
13-Dec-20 14:13 37.358510 -90.203422 341 38227ft 478kts
13-Dec-20 14:14 37.491070 -90.216101 341 38230ft 481kts
13-Dec-20 14:15 37.626169 -90.229385 341 38231ft 489kts
13-Dec-20 14:16 37.766368 -90.213391 0 38233ft 520kts
13-Dec-20 14:16 37.883459 -90.181794 359 38227ft 514kts
13-Dec-20 14:18 38.046883 -90.140551 359 38241ft 513kts
13-Dec-20 14:18 38.163651 -90.111035 358 38239ft 516kts
13-Dec-20 14:19 38.303268 -90.075831 358 38238ft 506kts
13-Dec-20 14:20 38.441875 -90.040641 358 38237ft 507kts
13-Dec-20 14:21 38.579829 -90.005469 358 38236ft 505kts
13-Dec-20 14:22 38.717535 -89.970221 359 38237ft 505kts
13-Dec-20 14:23 38.855520 -89.934762 359 38239ft 504kts
13-Dec-20 14:24 38.992723 -89.899362 359 38239ft 502kts
13-Dec-20 14:25 39.129670 -89.863893 359 38238ft 502kts
13-Dec-20 14:26 39.266935 -89.828197 359 38239ft 501kts
13-Dec-20 14:27 39.403323 -89.792590 359 38237ft 500kts
13-Dec-20 14:28 39.539579 -89.756925 0 38235ft 499kts
13-Dec-20 14:29 39.675987 -89.721046 0 38233ft 499kts
13-Dec-20 14:30 39.811908 -89.683114 6 37900ft 508kts
13-Dec-20 14:31 39.937484 -89.587536 30 35248ft 538kts
13-Dec-20 14:32 40.057685 -89.471083 28 32164ft 541kts
13-Dec-20 14:33 40.178342 -89.355607 28 29624ft 530kts
13-Dec-20 14:34 40.295462 -89.243138 29 27184ft 512kts
13-Dec-20 14:35 40.409048 -89.136700 24 24773ft 485kts
13-Dec-20 14:36 40.525796 -89.061390 19 22435ft 456kts
13-Dec-20 14:37 40.637556 -88.989851 19 20156ft 435kts
13-Dec-20 14:38 40.743719 -88.921067 21 17943ft 415kts
13-Dec-20 14:39 40.844533 -88.855380 21 15775ft 396kts
13-Dec-20 14:40 40.941176 -88.792700 22 13609ft 379kts
13-Dec-20 14:41 41.033761 -88.732294 23 11433ft 362kts
13-Dec-20 14:42 41.120361 -88.675515 24 10271ft 316kts
13-Dec-20 14:43 41.192672 -88.628060 24 9469ft 279kts
13-Dec-20 14:44 41.261339 -88.583174 25 8195ft 271kts
13-Dec-20 14:46 41.339948 -88.531454 25 7356ft 267kts
13-Dec-20 14:46 41.389946 -88.484536 48 6888ft 266kts
13-Dec-20 14:47 41.435508 -88.408446 51 6051ft 261kts
13-Dec-20 14:48 41.481160 -88.332832 50 5993ft 261kts
13-Dec-20 14:49 41.511982 -88.247240 81 5998ft 262kts
13-Dec-20 14:50 41.520184 -88.150448 83 5832ft 266kts
13-Dec-20 14:51 41.528586 -88.054082 83 4832ft 257kts
13-Dec-20 14:52 41.536838 -87.960317 83 3993ft 251kts
13-Dec-20 14:53 41.545017 -87.867502 83 3992ft 252kts
13-Dec-20 14:54 41.553228 -87.774432 83 3995ft 252kts
13-Dec-20 14:55 41.560734 -87.681604 86 3996ft 250kts
13-Dec-20 14:56 41.575420 -87.597496 36 3937ft 218kts
13-Dec-20 14:57 41.626032 -87.562615 25 3999ft 188kts
13-Dec-20 14:58 41.666893 -87.582710 307 3825ft 178kts
13-Dec-20 14:59 41.697785 -87.629358 312 2930ft 158kts
13-Dec-20 15:00 41.726311 -87.669437 312 2183ft 134kts
13-Dec-20 15:01 41.751227 -87.704564 310 1429ft 128kts
13-Dec-20 15:02 41.776071 -87.739280 310 771ft 127kts
13-Dec-20 15:03 41.790131 -87.757957 342 628ft 18kts
13-Dec-20 15:04 41.791261 -87.753774 89 628ft 19kts
13-Dec-20 15:05 41.790461 -87.747959 179 628ft 15kts
13-Dec-20 15:06 41.785866 -87.747558 133 628ft 13kts
13-Dec-20 15:07 41.787062 -87.743421 45 628ft 12kts
13-Dec-20 15:08 41.787391 -87.742230 101 628ft 0kts
13-Dec-20 15:09 41.787391 -87.742230 101 628ft 0kts
13-Dec-20 15:10 41.787391 -87.742230 101 628ft 0kts
13-Dec-20 15:11 41.787391 -87.742230 101 628ft 0kts
13-Dec-20 15:12 41.787391 -87.742230 101 628ft 0kts
13-Dec-20 15:13 41.787391 -87.742230 101 628ft 0kts
13-Dec-20 15:15 41.787391 -87.742230 101 628ft 0kts
13-Dec-20 15:15 41.787391 -87.742230 101 628ft 0kts
13-Dec-20 15:16 41.787391 -87.742230 101 628ft 0kts
13-Dec-20 15:17 41.787391 -87.742230 101 628ft 0kts

Navigation Log

Ident Type
Flight plan parsing failed, navigation log unavailable